sensor_id;sensor_type;location;lat;lon;timestamp;pressure;altitude;pressure_sealevel;temperature;humidity
32330;BME280;18807;52.434;13.238;2023-06-24T00:05:17;76000.22;;;-142.05;100.00
32330;BME280;18807;52.434;13.238;2023-06-24T00:12:52;76006.34;;;-142.05;100.00
32330;BME280;18807;52.434;13.238;2023-06-24T00:20:27;76010.44;;;-142.05;100.00
32330;BME280;18807;52.434;13.238;2023-06-24T00:28:02;76018.59;;;-142.05;100.00
32330;BME280;18807;52.434;13.238;2023-06-24T00:35:36;76026.78;;;-142.05;100.00
32330;BME280;18807;52.434;13.238;2023-06-24T00:43:12;76032.88;;;-142.05;100.00
32330;BME280;18807;52.434;13.238;2023-06-24T00:50:47;76039.00;;;-142.05;100.00
32330;BME280;18807;52.434;13.238;2023-06-24T00:58:23;76049.22;;;-142.05;100.00
32330;BME280;18807;52.434;13.238;2023-06-24T01:05:57;76057.38;;;-142.05;100.00
32330;BME280;18807;52.434;13.238;2023-06-24T01:13:33;76053.28;;;-142.05;100.00
32330;BME280;18807;52.434;13.238;2023-06-24T01:21:12;76057.38;;;-142.05;100.00
32330;BME280;18807;52.434;13.238;2023-06-24T01:37:10;76077.78;;;-142.05;100.00
32330;BME280;18807;52.434;13.238;2023-06-24T01:44:47;76088.00;;;-142.05;100.00
32330;BME280;18807;52.434;13.238;2023-06-24T01:52:43;76098.19;;;-142.05;100.00
32330;BME280;18807;52.434;13.238;2023-06-24T02:00:19;76116.56;;;-142.05;100.00
32330;BME280;18807;52.434;13.238;2023-06-24T02:07:57;76130.84;;;-142.05;100.00
32330;BME280;18807;52.434;13.238;2023-06-24T02:15:33;76145.13;;;-142.05;100.00
32330;BME280;18807;52.434;13.238;2023-06-24T02:23:11;76161.47;;;-142.05;100.00
32330;BME280;18807;52.434;13.238;2023-06-24T02:30:47;76175.75;;;-142.05;100.00
32330;BME280;18807;52.434;13.238;2023-06-24T02:38:22;76190.03;;;-142.05;100.00
32330;BME280;18807;52.434;13.238;2023-06-24T02:46:01;76210.44;;;-142.05;100.00
32330;BME280;18807;52.434;13.238;2023-06-24T02:53:39;76224.75;;;-142.05;100.00
32330;BME280;18807;52.434;13.238;2023-06-24T03:01:14;76245.16;;;-142.05;100.00
32330;BME280;18807;52.434;13.238;2023-06-24T03:08:51;76249.22;;;-142.05;100.00
32330;BME280;18807;52.434;13.238;2023-06-24T03:16:25;76283.94;;;-142.05;100.00
32330;BME280;18807;52.434;13.238;2023-06-24T03:24:19;76292.09;;;-142.05;100.00
32330;BME280;18807;52.434;13.238;2023-06-24T03:31:53;76302.31;;;-142.05;100.00
32330;BME280;18807;52.434;13.238;2023-06-24T03:39:28;76318.63;;;-142.05;100.00
32330;BME280;18807;52.434;13.238;2023-06-24T03:47:03;76316.59;;;-142.05;100.00
32330;BME280;18807;52.434;13.238;2023-06-24T03:54:55;76328.84;;;-142.05;100.00
32330;BME280;18807;52.434;13.238;2023-06-24T04:02:29;76328.84;;;-142.05;100.00
32330;BME280;18807;52.434;13.238;2023-06-24T04:10:06;76332.91;;;-142.05;100.00
32330;BME280;18807;52.434;13.238;2023-06-24T04:17:41;76345.16;;;-142.05;100.00
32330;BME280;18807;52.434;13.238;2023-06-24T04:25:17;76351.28;;;-142.05;100.00
32330;BME280;18807;52.434;13.238;2023-06-24T04:32:51;76361.50;;;-142.05;100.00
32330;BME280;18807;52.434;13.238;2023-06-24T04:40:27;76363.53;;;-142.05;100.00
32330;BME280;18807;52.434;13.238;2023-06-24T04:48:01;76363.53;;;-142.05;100.00
32330;BME280;18807;52.434;13.238;2023-06-24T04:55:36;76363.53;;;-142.05;100.00
32330;BME280;18807;52.434;13.238;2023-06-24T05:03:10;76363.53;;;-142.05;100.00
32330;BME280;18807;52.434;13.238;2023-06-24T05:10:46;76359.44;;;-142.05;100.00
32330;BME280;18807;52.434;13.238;2023-06-24T05:18:20;76361.50;;;-142.05;100.00
32330;BME280;18807;52.434;13.238;2023-06-24T05:25:56;76343.13;;;-142.05;100.00
32330;BME280;18807;52.434;13.238;2023-06-24T05:33:30;76339.03;;;-142.05;100.00
32330;BME280;18807;52.434;13.238;2023-06-24T05:41:05;76363.53;;;-142.05;100.00
32330;BME280;18807;52.434;13.238;2023-06-24T05:48:39;76365.56;;;-142.05;100.00
32330;BME280;18807;52.434;13.238;2023-06-24T05:56:16;76324.75;;;-142.05;100.00
32330;BME280;18807;52.434;13.238;2023-06-24T06:03:50;76322.72;;;-142.05;100.00
32330;BME280;18807;52.434;13.238;2023-06-24T06:11:43;76302.31;;;-142.05;100.00
32330;BME280;18807;52.434;13.238;2023-06-24T06:19:34;76285.97;;;-142.05;100.00
32330;BME280;18807;52.434;13.238;2023-06-24T06:27:10;76273.72;;;-142.05;100.00
32330;BME280;18807;52.434;13.238;2023-06-24T06:34:45;76249.22;;;-142.05;100.00
32330;BME280;18807;52.434;13.238;2023-06-24T06:42:40;76224.75;;;-142.05;100.00
32330;BME280;18807;52.434;13.238;2023-06-24T06:50:15;76204.31;;;-142.05;100.00
32330;BME280;18807;52.434;13.238;2023-06-24T06:57:50;76188.00;;;-142.05;100.00
32330;BME280;18807;52.434;13.238;2023-06-24T07:05:24;76171.69;;;-142.05;100.00
32330;BME280;18807;52.434;13.238;2023-06-24T07:12:59;76153.31;;;-142.05;100.00
32330;BME280;18807;52.434;13.238;2023-06-24T07:20:34;76141.06;;;-142.05;100.00
32330;BME280;18807;52.434;13.238;2023-06-24T07:28:09;76128.81;;;-142.05;100.00
32330;BME280;18807;52.434;13.238;2023-06-24T07:35:45;76124.72;;;-142.05;100.00
32330;BME280;18807;52.434;13.238;2023-06-24T07:43:21;76100.25;;;-142.05;100.00
32330;BME280;18807;52.434;13.238;2023-06-24T07:50:54;76081.88;;;-142.05;100.00
32330;BME280;18807;52.434;13.238;2023-06-24T07:58:30;76053.28;;;-142.05;100.00
32330;BME280;18807;52.434;13.238;2023-06-24T08:06:21;76061.47;;;-142.05;100.00
32330;BME280;18807;52.434;13.238;2023-06-24T08:13:57;76036.97;;;-142.05;100.00
32330;BME280;18807;52.434;13.238;2023-06-24T08:21:31;76022.69;;;-142.05;90.69
32330;BME280;18807;52.434;13.238;2023-06-24T08:29:08;76004.31;;;-142.05;92.31
32330;BME280;18807;52.434;13.238;2023-06-24T08:37:00;76008.41;;;-142.05;85.18
32330;BME280;18807;52.434;13.238;2023-06-24T08:44:36;75963.50;;;-142.05;83.55
32330;BME280;18807;52.434;13.238;2023-06-24T08:52:12;75957.38;;;-142.05;83.92
32330;BME280;18807;52.434;13.238;2023-06-24T08:59:49;75947.16;;;-142.05;74.45
32330;BME280;18807;52.434;13.238;2023-06-24T09:07:26;75916.56;;;-142.05;73.40
32330;BME280;18807;52.434;13.238;2023-06-24T09:15:03;75910.44;;;-142.05;67.64
32330;BME280;18807;52.434;13.238;2023-06-24T09:22:39;75885.94;;;-142.05;66.59
32330;BME280;18807;52.434;13.238;2023-06-24T09:30:19;75869.63;;;-142.05;64.04
32330;BME280;18807;52.434;13.238;2023-06-24T09:37:55;75836.97;;;-142.05;62.59
32330;BME280;18807;52.434;13.238;2023-06-24T09:45:31;75804.31;;;-142.05;63.25
32330;BME280;18807;52.434;13.238;2023-06-24T09:53:06;75730.84;;;-142.05;63.27
32330;BME280;18807;52.434;13.238;2023-06-24T10:00:42;75724.72;;;-142.05;60.64
32330;BME280;18807;52.434;13.238;2023-06-24T10:08:16;75736.97;;;-142.05;60.63
32330;BME280;18807;52.434;13.238;2023-06-24T10:15:52;75710.44;;;-142.05;58.81
32330;BME280;18807;52.434;13.238;2023-06-24T10:23:30;75639.00;;;-142.05;59.87
32330;BME280;18807;52.434;13.238;2023-06-24T10:31:05;75645.13;;;-142.05;56.94
32330;BME280;18807;52.434;13.238;2023-06-24T10:38:57;75632.91;;;-142.05;58.89
32330;BME280;18807;52.434;13.238;2023-06-24T10:46:34;75636.97;;;-142.05;58.13
32330;BME280;18807;52.434;13.238;2023-06-24T10:54:08;75573.72;;;-142.05;57.04
32330;BME280;18807;52.434;13.238;2023-06-24T11:01:53;75579.84;;;-142.05;56.20
32330;BME280;18807;52.434;13.238;2023-06-24T11:09:48;75565.56;;;-142.05;54.74
32330;BME280;18807;52.434;13.238;2023-06-24T11:17:25;75561.47;;;-142.05;53.34
32330;BME280;18807;52.434;13.238;2023-06-24T11:24:59;75557.38;;;-142.05;52.91
32330;BME280;18807;52.434;13.238;2023-06-24T11:32:38;75518.63;;;-142.05;51.90
32330;BME280;18807;52.434;13.238;2023-06-24T11:40:13;75532.91;;;-142.05;52.89
32330;BME280;18807;52.434;13.238;2023-06-24T11:47:51;75516.56;;;-142.05;53.15
32330;BME280;18807;52.434;13.238;2023-06-24T11:55:25;75502.28;;;-142.05;47.56
32330;BME280;18807;52.434;13.238;2023-06-24T12:03:03;75496.16;;;-142.05;50.58
32330;BME280;18807;52.434;13.238;2023-06-24T12:10:43;75463.53;;;-142.05;51.68
32330;BME280;18807;52.434;13.238;2023-06-24T12:18:20;75432.91;;;-142.05;50.05
32330;BME280;18807;52.434;13.238;2023-06-24T12:25:54;75414.56;;;-142.05;48.97
32330;BME280;18807;52.434;13.238;2023-06-24T12:33:29;75412.50;;;-142.05;48.06
32330;BME280;18807;52.434;13.238;2023-06-24T12:41:03;75396.19;;;-142.05;49.77
32330;BME280;18807;52.434;13.238;2023-06-24T12:48:39;75390.06;;;-142.05;51.06
32330;BME280;18807;52.434;13.238;2023-06-24T12:56:13;75359.47;;;-142.05;48.04
32330;BME280;18807;52.434;13.238;2023-06-24T13:03:48;75341.09;;;-142.05;47.60
32330;BME280;18807;52.434;13.238;2023-06-24T13:11:22;75330.88;;;-142.05;48.00
32330;BME280;18807;52.434;13.238;2023-06-24T13:18:58;75314.56;;;-142.05;46.20
32330;BME280;18807;52.434;13.238;2023-06-24T13:26:32;75298.25;;;-142.05;43.94
32330;BME280;18807;52.434;13.238;2023-06-24T13:34:08;75257.44;;;-142.05;44.54
32330;BME280;18807;52.434;13.238;2023-06-24T13:41:42;75202.34;;;-142.05;44.13
32330;BME280;18807;52.434;13.238;2023-06-24T13:49:17;75188.06;;;-142.05;43.23
32330;BME280;18807;52.434;13.238;2023-06-24T13:56:51;75130.94;;;-142.05;43.63
32330;BME280;18807;52.434;13.238;2023-06-24T14:04:27;75114.59;;;-142.05;42.78
32330;BME280;18807;52.434;13.238;2023-06-24T14:12:01;75055.44;;;-142.05;43.26
32330;BME280;18807;52.434;13.238;2023-06-24T14:19:38;75022.78;;;-142.05;42.26
32330;BME280;18807;52.434;13.238;2023-06-24T14:27:12;75041.16;;;-142.05;39.62
32330;BME280;18807;52.434;13.238;2023-06-24T14:34:48;74998.31;;;-142.05;40.63
32330;BME280;18807;52.434;13.238;2023-06-24T14:42:22;74992.19;;;-142.05;40.16
32330;BME280;18807;52.434;13.238;2023-06-24T14:49:57;74914.66;;;-142.05;40.04
32330;BME280;18807;52.434;13.238;2023-06-24T14:57:31;74908.53;;;-142.05;41.35
32330;BME280;18807;52.434;13.238;2023-06-24T15:05:08;74867.72;;;-142.05;40.17
32330;BME280;18807;52.434;13.238;2023-06-24T15:12:42;74910.56;;;-142.05;39.44
32330;BME280;18807;52.434;13.238;2023-06-24T15:20:17;74882.00;;;-142.05;40.52
32330;BME280;18807;52.434;13.238;2023-06-24T15:27:51;74847.31;;;-142.05;40.71
32330;BME280;18807;52.434;13.238;2023-06-24T15:35:26;74853.44;;;-142.05;39.95
32330;BME280;18807;52.434;13.238;2023-06-24T15:43:00;74863.66;;;-142.05;38.89
32330;BME280;18807;52.434;13.238;2023-06-24T15:50:37;74804.47;;;-142.05;38.29
32330;BME280;18807;52.434;13.238;2023-06-24T15:58:11;74777.97;;;-142.05;37.21
32330;BME280;18807;52.434;13.238;2023-06-24T16:05:46;74814.69;;;-142.05;37.31
32330;BME280;18807;52.434;13.238;2023-06-24T16:13:20;74743.28;;;-142.05;38.23
32330;BME280;18807;52.434;13.238;2023-06-24T16:20:55;74763.69;;;-142.05;37.85
32330;BME280;18807;52.434;13.238;2023-06-24T16:28:29;74763.69;;;-142.05;37.61
32330;BME280;18807;52.434;13.238;2023-06-24T16:36:05;74761.63;;;-142.05;37.76
32330;BME280;18807;52.434;13.238;2023-06-24T16:43:57;74780.00;;;-142.05;37.68
32330;BME280;18807;52.434;13.238;2023-06-24T16:51:32;74808.56;;;-142.05;37.86
32330;BME280;18807;52.434;13.238;2023-06-24T16:59:06;74812.66;;;-142.05;37.72
32330;BME280;18807;52.434;13.238;2023-06-24T17:07:00;74808.56;;;-142.05;38.97
32330;BME280;18807;52.434;13.238;2023-06-24T17:14:34;74828.97;;;-142.05;38.10
32330;BME280;18807;52.434;13.238;2023-06-24T17:22:27;74843.25;;;-142.05;38.33
32330;BME280;18807;52.434;13.238;2023-06-24T17:30:01;74855.50;;;-142.05;38.84
32330;BME280;18807;52.434;13.238;2023-06-24T17:37:37;74863.66;;;-142.05;38.46
32330;BME280;18807;52.434;13.238;2023-06-24T17:45:11;74914.66;;;-142.05;39.38
32330;BME280;18807;52.434;13.238;2023-06-24T17:52:46;74926.91;;;-142.05;40.83
32330;BME280;18807;52.434;13.238;2023-06-24T18:00:22;74953.41;;;-142.05;40.17
32330;BME280;18807;52.434;13.238;2023-06-24T18:07:58;74996.25;;;-142.05;40.95
32330;BME280;18807;52.434;13.238;2023-06-24T18:15:33;75022.78;;;-142.05;42.43
32330;BME280;18807;52.434;13.238;2023-06-24T18:23:08;75057.47;;;-142.05;43.40
32330;BME280;18807;52.434;13.238;2023-06-24T18:30:42;75084.00;;;-142.05;43.87
32330;BME280;18807;52.434;13.238;2023-06-24T18:38:18;75110.53;;;-142.05;45.13
32330;BME280;18807;52.434;13.238;2023-06-24T18:45:52;75132.97;;;-142.05;45.51
32330;BME280;18807;52.434;13.238;2023-06-24T18:53:45;75157.44;;;-142.05;47.24
32330;BME280;18807;52.434;13.238;2023-06-24T19:01:19;75183.97;;;-142.05;52.17
32330;BME280;18807;52.434;13.238;2023-06-24T19:08:55;75232.94;;;-142.05;52.14
32330;BME280;18807;52.434;13.238;2023-06-24T19:16:29;75245.19;;;-142.05;53.52
32330;BME280;18807;52.434;13.238;2023-06-24T19:24:06;75261.50;;;-142.05;55.53
32330;BME280;18807;52.434;13.238;2023-06-24T19:31:40;75290.06;;;-142.05;56.82
32330;BME280;18807;52.434;13.238;2023-06-24T19:39:16;75316.59;;;-142.05;58.12
32330;BME280;18807;52.434;13.238;2023-06-24T19:46:50;75339.06;;;-142.05;59.81
32330;BME280;18807;52.434;13.238;2023-06-24T19:54:26;75375.78;;;-142.05;61.64
32330;BME280;18807;52.434;13.238;2023-06-24T20:02:00;75400.25;;;-142.05;62.31
32330;BME280;18807;52.434;13.238;2023-06-24T20:09:53;75426.78;;;-142.05;62.29
32330;BME280;18807;52.434;13.238;2023-06-24T20:17:27;75451.28;;;-142.05;64.77
32330;BME280;18807;52.434;13.238;2023-06-24T20:25:20;75467.59;;;-142.05;66.93
32330;BME280;18807;52.434;13.238;2023-06-24T20:32:54;75496.16;;;-142.05;68.11
32330;BME280;18807;52.434;13.238;2023-06-24T20:40:30;75508.41;;;-142.05;69.95
32330;BME280;18807;52.434;13.238;2023-06-24T20:48:04;75522.69;;;-142.05;72.10
32330;BME280;18807;52.434;13.238;2023-06-24T20:55:40;75539.03;;;-142.05;73.70
32330;BME280;18807;52.434;13.238;2023-06-24T21:03:32;75561.47;;;-142.05;75.44
32330;BME280;18807;52.434;13.238;2023-06-24T21:11:08;75575.75;;;-142.05;77.68
32330;BME280;18807;52.434;13.238;2023-06-24T21:18:43;75596.16;;;-142.05;78.79
32330;BME280;18807;52.434;13.238;2023-06-24T21:26:18;75610.44;;;-142.05;80.14
32330;BME280;18807;52.434;13.238;2023-06-24T21:33:56;75630.84;;;-142.05;81.72
32330;BME280;18807;52.434;13.238;2023-06-24T21:41:32;75643.09;;;-142.05;84.66
32330;BME280;18807;52.434;13.238;2023-06-24T21:49:06;75651.25;;;-142.05;88.07
32330;BME280;18807;52.434;13.238;2023-06-24T21:56:41;75665.53;;;-142.05;91.29
32330;BME280;18807;52.434;13.238;2023-06-24T22:05:14;75685.94;;;-142.05;94.37
32330;BME280;18807;52.434;13.238;2023-06-24T22:13:05;75698.19;;;-142.05;96.04
32330;BME280;18807;52.434;13.238;2023-06-24T22:20:40;75720.66;;;-142.05;97.22
32330;BME280;18807;52.434;13.238;2023-06-24T22:28:14;75732.88;;;-142.05;99.39
32330;BME280;18807;52.434;13.238;2023-06-24T22:35:50;75757.38;;;-142.05;100.00
32330;BME280;18807;52.434;13.238;2023-06-24T22:43:24;75775.75;;;-142.05;100.00
32330;BME280;18807;52.434;13.238;2023-06-24T22:51:01;75785.94;;;-142.05;100.00
32330;BME280;18807;52.434;13.238;2023-06-24T22:58:35;75800.22;;;-142.05;100.00
32330;BME280;18807;52.434;13.238;2023-06-24T23:06:11;75812.47;;;-142.05;100.00
32330;BME280;18807;52.434;13.238;2023-06-24T23:13:46;75826.75;;;-142.05;100.00
32330;BME280;18807;52.434;13.238;2023-06-24T23:21:21;75826.75;;;-142.05;100.00
32330;BME280;18807;52.434;13.238;2023-06-24T23:28:57;75839.00;;;-142.05;100.00
32330;BME280;18807;52.434;13.238;2023-06-24T23:36:40;75845.13;;;-142.05;100.00
32330;BME280;18807;52.434;13.238;2023-06-24T23:44:15;75855.34;;;-142.05;100.00
32330;BME280;18807;52.434;13.238;2023-06-24T23:51:51;75861.47;;;-142.05;100.00
32330;BME280;18807;52.434;13.238;2023-06-24T23:59:25;75871.66;;;-142.05;100.00
